Vilanova I La Geltru, Spain
Current Conditions -  °F | °C
As of 8:00 AM on Monday 24 Nov 2014 (Local Time) from LEBL Reporting Station
Few Clouds Few Clouds  
Wind Chill: 63°   Ceiling: Unl
Heat Index: 63°   Visibility: 6mi
Dew Point: 55°   Wind: 6mph
Humidity: 77%   Direction: 350°N
Pressure: 30.03"   Gusts: NA
Location:  41.22°N, 1.73°E
Report Text: LEBL 240700Z 35005KT 300V080 9999 FEW010 17/13 Q1017 NOSIG
Loading
Personal Weather Stations






























Interactive Weather Map New forecast layout! Learn more

10-Day Weather Forecast

Advertisements
Track Severe Weather on mobile